createdAt,value
2018-07-19T00:01:25.753Z,48.82
2018-07-19T00:03:51.748Z,48.81
2018-07-19T00:06:17.756Z,49.90
2018-07-19T00:08:43.761Z,49.34
2018-07-19T00:11:09.775Z,50.07
2018-07-19T00:13:35.779Z,50.56
2018-07-19T00:16:01.937Z,50.69
2018-07-19T00:18:27.911Z,50.08
2018-07-19T00:20:53.899Z,50.30
2018-07-19T00:23:19.904Z,50.04
2018-07-19T00:25:45.905Z,50.33
2018-07-19T00:28:11.896Z,50.97
2018-07-19T00:30:37.915Z,50.50
2018-07-19T00:33:03.990Z,50.76
2018-07-19T00:35:30.663Z,50.35
2018-07-19T00:37:56.620Z,50.56
2018-07-19T00:40:22.738Z,50.30
2018-07-19T00:42:48.712Z,50.61
2018-07-19T00:45:14.673Z,51.09
2018-07-19T00:47:40.638Z,51.10
2018-07-19T00:50:06.632Z,50.35
2018-07-19T00:52:32.639Z,51.92
2018-07-19T00:54:58.654Z,51.54
2018-07-19T00:57:24.644Z,50.88
2018-07-19T00:59:50.627Z,51.57
2018-07-19T01:02:16.652Z,51.24
2018-07-19T01:04:42.703Z,51.54
2018-07-19T01:07:08.680Z,51.00
2018-07-19T01:09:34.677Z,51.45
2018-07-19T01:12:00.665Z,50.78
2018-07-19T01:14:26.674Z,51.50
2018-07-19T01:16:52.668Z,50.71
2018-07-19T01:19:18.652Z,52.42
2018-07-19T01:21:44.624Z,51.43
2018-07-19T01:24:10.621Z,52.14
2018-07-19T01:26:36.608Z,51.31
2018-07-19T01:29:02.613Z,52.02
2018-07-19T01:31:28.608Z,51.49
2018-07-19T01:33:54.780Z,51.82
2018-07-19T01:36:20.796Z,51.88
2018-07-19T01:38:46.758Z,50.97
2018-07-19T01:41:12.766Z,51.37
2018-07-19T01:43:38.758Z,51.29
2018-07-19T01:46:04.761Z,50.96
2018-07-19T01:48:30.762Z,52.03
2018-07-19T01:50:56.735Z,51.21
2018-07-19T01:53:22.750Z,51.61
2018-07-19T01:55:48.726Z,51.22
2018-07-19T01:58:14.740Z,51.68
2018-07-19T02:00:40.749Z,52.12
2018-07-19T02:03:06.742Z,51.61
2018-07-19T02:05:32.738Z,51.92
2018-07-19T02:07:58.708Z,51.48
2018-07-19T02:10:24.689Z,51.61
2018-07-19T02:12:50.672Z,51.54
2018-07-19T02:15:16.663Z,51.77
2018-07-19T02:17:42.654Z,51.55
2018-07-19T02:20:08.640Z,51.38
2018-07-19T02:22:34.736Z,52.00
2018-07-19T02:25:00.726Z,51.42
2018-07-19T02:27:26.727Z,52.10
2018-07-19T02:29:52.832Z,51.58
2018-07-19T02:32:18.812Z,51.75
2018-07-19T02:34:44.825Z,51.67
2018-07-19T02:37:10.814Z,51.76
2018-07-19T02:39:36.814Z,52.80
2018-07-19T02:42:02.766Z,52.48
2018-07-19T02:44:28.766Z,52.20
2018-07-19T02:46:54.757Z,51.96
2018-07-19T02:49:20.808Z,51.89
2018-07-19T02:51:46.818Z,52.13
2018-07-19T02:54:12.807Z,52.60
2018-07-19T02:56:38.792Z,52.20
2018-07-19T02:59:04.783Z,52.17
2018-07-19T03:01:30.767Z,51.83
2018-07-19T03:03:56.752Z,52.59
2018-07-19T03:06:22.776Z,51.89
2018-07-19T03:08:48.744Z,52.47
2018-07-19T03:11:14.728Z,52.51
2018-07-19T03:13:40.717Z,51.59
2018-07-19T03:16:06.695Z,51.73
2018-07-19T03:18:32.687Z,52.38
2018-07-19T03:20:58.678Z,51.69
2018-07-19T03:23:24.645Z,52.68
2018-07-19T03:25:50.628Z,52.19
2018-07-19T03:28:16.594Z,51.92
2018-07-19T03:30:42.592Z,51.75
2018-07-19T03:33:09.316Z,51.85
2018-07-19T03:35:35.280Z,52.46
2018-07-19T03:38:01.294Z,51.60
2018-07-19T03:40:27.268Z,52.04
2018-07-19T03:42:53.245Z,51.47
2018-07-19T03:45:19.223Z,51.26
2018-07-19T03:47:45.204Z,52.55
2018-07-19T03:50:11.191Z,51.48
2018-07-19T03:52:37.164Z,52.12
2018-07-19T03:55:03.218Z,52.26
2018-07-19T03:57:29.299Z,52.25
2018-07-19T03:59:55.264Z,51.55
2018-07-19T04:02:21.253Z,52.26
2018-07-19T04:04:47.301Z,51.55
2018-07-19T04:07:13.331Z,52.53
2018-07-19T04:09:39.296Z,51.98
2018-07-19T04:12:05.289Z,52.11
2018-07-19T04:14:31.231Z,52.23
2018-07-19T04:16:57.285Z,52.07
2018-07-19T04:19:23.228Z,52.47
2018-07-19T04:21:49.203Z,52.03
2018-07-19T04:24:15.279Z,51.40
2018-07-19T04:26:41.262Z,51.81
2018-07-19T04:29:07.264Z,51.44
2018-07-19T04:31:33.395Z,51.75
2018-07-19T04:33:59.391Z,52.48
2018-07-19T04:36:25.432Z,51.95
2018-07-19T04:38:51.473Z,51.76
2018-07-19T04:41:17.458Z,51.55
2018-07-19T04:43:43.457Z,51.99
2018-07-19T04:46:09.452Z,51.88
2018-07-19T04:48:35.461Z,52.10
2018-07-19T04:51:01.464Z,51.48
2018-07-19T04:53:27.452Z,51.85
2018-07-19T04:55:53.513Z,52.39
2018-07-19T04:58:19.494Z,52.29
2018-07-19T05:00:45.510Z,51.80
2018-07-19T05:03:11.533Z,52.88
2018-07-19T05:05:37.537Z,51.93
2018-07-19T05:08:03.521Z,52.15
2018-07-19T05:10:29.503Z,51.81
2018-07-19T05:12:55.465Z,51.80
2018-07-19T05:15:21.447Z,52.44
2018-07-19T05:17:47.442Z,52.24
2018-07-19T05:20:13.425Z,52.03
2018-07-19T05:22:39.428Z,51.62
2018-07-19T05:25:05.425Z,51.80
2018-07-19T05:27:31.442Z,51.27
2018-07-19T05:29:57.416Z,51.38
2018-07-19T05:32:23.384Z,50.81
2018-07-19T05:34:49.361Z,50.95
2018-07-19T05:37:15.338Z,51.65
2018-07-19T05:39:41.349Z,50.88
2018-07-19T05:42:07.370Z,51.12
2018-07-19T05:44:33.321Z,51.24
2018-07-19T05:46:59.328Z,51.26
2018-07-19T05:49:25.329Z,51.29
2018-07-19T05:51:51.684Z,51.40
2018-07-19T05:54:17.665Z,52.04
2018-07-19T05:56:43.781Z,51.15
2018-07-19T05:59:09.769Z,51.58
2018-07-19T06:01:35.944Z,51.56
2018-07-19T06:04:01.910Z,52.21
2018-07-19T06:06:27.900Z,51.09
2018-07-19T06:08:53.885Z,51.31
2018-07-19T06:11:19.895Z,51.37
2018-07-19T06:13:45.875Z,51.64
2018-07-19T06:16:11.912Z,51.77
2018-07-19T06:18:37.861Z,51.16
2018-07-19T06:21:03.805Z,51.34
2018-07-19T06:23:29.799Z,51.45
2018-07-19T06:25:55.932Z,52.13
2018-07-19T06:28:21.940Z,51.67
2018-07-19T06:30:47.934Z,52.03
2018-07-19T06:33:13.957Z,51.66
2018-07-19T06:35:39.961Z,51.83
2018-07-19T06:38:05.943Z,51.51
2018-07-19T06:40:31.922Z,51.51
2018-07-19T06:42:58.125Z,51.18
2018-07-19T06:45:24.148Z,52.24
2018-07-19T06:47:50.148Z,51.30
2018-07-19T06:50:16.139Z,51.28
2018-07-19T06:52:42.173Z,51.35
2018-07-19T06:55:08.292Z,51.37
2018-07-19T06:57:34.435Z,50.99
2018-07-19T07:00:00.316Z,51.65
2018-07-19T07:02:26.298Z,52.10
2018-07-19T07:04:52.281Z,51.66
2018-07-19T07:07:18.264Z,51.23
2018-07-19T07:09:44.349Z,51.97
2018-07-19T07:12:10.390Z,51.55
2018-07-19T07:14:36.417Z,52.04
2018-07-19T07:17:02.430Z,52.22
2018-07-19T07:19:28.460Z,51.81
2018-07-19T07:21:54.476Z,51.96
2018-07-19T07:24:20.465Z,51.99
2018-07-19T07:26:46.537Z,51.40
2018-07-19T07:29:12.500Z,51.53
2018-07-19T07:31:38.487Z,52.21
2018-07-19T07:34:04.485Z,52.12
2018-07-19T07:36:30.443Z,51.13
2018-07-19T07:38:56.459Z,52.25
2018-07-19T07:41:22.434Z,52.15
2018-07-19T07:43:48.421Z,52.42
2018-07-19T07:46:14.435Z,51.92
2018-07-19T07:48:40.431Z,52.35
2018-07-19T07:51:06.420Z,53.16
2018-07-19T07:53:32.420Z,52.24
2018-07-19T07:55:58.418Z,52.40
2018-07-19T07:58:24.416Z,52.17
2018-07-19T08:00:50.393Z,52.90
2018-07-19T08:03:16.428Z,52.56
2018-07-19T08:05:42.446Z,52.26
2018-07-19T08:08:08.419Z,52.37
2018-07-19T08:10:34.441Z,51.01
2018-07-19T08:13:00.429Z,50.89
2018-07-19T08:15:26.501Z,50.75
2018-07-19T08:17:52.520Z,49.67
2018-07-19T08:20:18.523Z,50.36
2018-07-19T08:22:44.527Z,50.82
2018-07-19T08:25:10.504Z,51.59
2018-07-19T08:27:36.445Z,52.97
2018-07-19T08:30:02.431Z,50.80
2018-07-19T08:32:28.437Z,52.14
2018-07-19T08:34:54.443Z,51.69
2018-07-19T08:37:20.410Z,52.61
2018-07-19T08:39:46.485Z,50.38
2018-07-19T08:42:12.529Z,51.46
2018-07-19T08:44:38.508Z,51.08
2018-07-19T08:47:04.592Z,49.48
2018-07-19T08:49:30.602Z,50.29
2018-07-19T08:51:56.611Z,50.24
2018-07-19T08:54:22.679Z,49.90
2018-07-19T08:56:48.720Z,50.20
2018-07-19T08:59:14.674Z,50.21
2018-07-19T09:01:40.678Z,51.75
2018-07-19T09:04:06.791Z,51.38
2018-07-19T09:06:32.825Z,49.34
2018-07-19T09:08:58.825Z,50.17
2018-07-19T09:11:24.835Z,51.93
2018-07-19T09:13:50.868Z,51.39
2018-07-19T09:16:16.951Z,50.80
2018-07-19T09:18:42.932Z,50.95
2018-07-19T09:21:08.940Z,52.85
2018-07-19T09:23:35.032Z,52.25
2018-07-19T09:26:01.022Z,51.95
2018-07-19T09:28:27.091Z,51.85
2018-07-19T09:30:53.113Z,53.14
2018-07-19T09:33:19.111Z,51.85
2018-07-19T09:35:45.118Z,52.58
2018-07-19T09:38:11.108Z,53.07
2018-07-19T09:40:37.075Z,52.00
2018-07-19T09:43:03.082Z,51.31
2018-07-19T09:45:29.063Z,53.18
2018-07-19T09:47:55.039Z,53.23
2018-07-19T09:50:21.045Z,50.83
2018-07-19T09:52:47.083Z,52.07
2018-07-19T09:55:13.083Z,51.12
2018-07-19T09:57:39.158Z,52.07
2018-07-19T10:00:05.136Z,51.64
2018-07-19T10:02:31.186Z,52.76
2018-07-19T10:04:57.203Z,51.90
2018-07-19T10:07:23.301Z,51.54
2018-07-19T10:09:49.277Z,51.45
2018-07-19T10:12:15.307Z,52.14
2018-07-19T10:14:41.283Z,50.98
2018-07-19T10:17:07.292Z,51.16
2018-07-19T10:19:33.219Z,51.14
2018-07-19T10:21:59.216Z,51.67
2018-07-19T10:24:25.282Z,51.44
2018-07-19T10:26:51.196Z,52.41
2018-07-19T10:29:17.173Z,52.47
2018-07-19T10:31:43.233Z,52.23
2018-07-19T10:34:09.279Z,51.86
2018-07-19T10:36:35.203Z,51.58
2018-07-19T10:39:01.283Z,53.25
2018-07-19T10:41:27.256Z,52.60
2018-07-19T10:43:53.240Z,52.17
2018-07-19T10:46:19.287Z,52.05
2018-07-19T10:48:45.295Z,53.41
2018-07-19T10:51:11.260Z,52.07
2018-07-19T10:53:37.247Z,51.17
2018-07-19T10:56:03.316Z,52.05
2018-07-19T10:58:29.386Z,51.23
2018-07-19T11:00:55.351Z,52.12
2018-07-19T11:03:21.354Z,51.80
2018-07-19T11:05:47.425Z,51.09
2018-07-19T11:08:13.387Z,53.83
2018-07-19T11:10:39.368Z,51.68
2018-07-19T11:13:05.357Z,52.80
2018-07-19T11:15:31.321Z,52.97
2018-07-19T11:17:57.376Z,53.13
2018-07-19T11:20:23.425Z,52.74
2018-07-19T11:22:49.433Z,53.06
2018-07-19T11:25:15.401Z,53.52
2018-07-19T11:27:41.379Z,52.70
2018-07-19T11:30:07.407Z,52.61
2018-07-19T11:32:33.424Z,52.68
2018-07-19T11:34:59.466Z,52.66
2018-07-19T11:37:25.557Z,52.41
2018-07-19T11:39:51.517Z,51.83
2018-07-19T11:42:17.562Z,54.24
2018-07-19T11:44:43.542Z,53.31
2018-07-19T11:47:09.499Z,53.40
2018-07-19T11:49:35.455Z,52.61
2018-07-19T11:52:01.424Z,52.81
2018-07-19T11:54:27.400Z,53.24
2018-07-19T11:56:53.390Z,53.25
2018-07-19T11:59:19.345Z,52.68
2018-07-19T12:01:45.374Z,52.55
2018-07-19T12:04:11.334Z,53.07
2018-07-19T12:06:37.343Z,54.01
2018-07-19T12:09:03.306Z,54.08
2018-07-19T12:11:29.276Z,52.86
2018-07-19T12:13:55.258Z,52.84
2018-07-19T12:16:21.227Z,54.66
2018-07-19T12:18:47.283Z,53.82
2018-07-19T12:21:13.320Z,53.58
2018-07-19T12:23:39.286Z,53.73
2018-07-19T12:26:05.977Z,53.24
2018-07-19T12:28:31.976Z,52.63
2018-07-19T12:30:58.089Z,53.85
2018-07-19T12:33:24.036Z,53.61
2018-07-19T12:35:50.023Z,53.08
2018-07-19T12:38:15.997Z,53.04
2018-07-19T12:40:41.998Z,53.74
2018-07-19T12:43:07.985Z,52.44
2018-07-19T12:45:33.962Z,53.64
2018-07-19T12:47:59.931Z,53.06
2018-07-19T12:50:25.956Z,52.79
2018-07-19T12:52:51.900Z,54.01
2018-07-19T12:55:17.903Z,54.05
2018-07-19T12:57:43.869Z,53.61
2018-07-19T13:00:09.845Z,53.16
2018-07-19T13:02:35.793Z,53.31
2018-07-19T13:05:01.761Z,53.53
2018-07-19T13:07:27.731Z,54.07
2018-07-19T13:09:53.696Z,54.22
2018-07-19T13:12:19.673Z,53.69
2018-07-19T13:14:45.679Z,54.22
2018-07-19T13:17:11.638Z,54.16
2018-07-19T13:19:37.633Z,54.35
2018-07-19T13:22:03.649Z,53.74
2018-07-19T13:24:29.661Z,54.16
2018-07-19T13:26:55.618Z,54.64
2018-07-19T13:29:21.576Z,54.20
2018-07-19T13:31:47.652Z,53.94
2018-07-19T13:34:13.646Z,54.58
2018-07-19T13:36:39.646Z,53.68
2018-07-19T13:39:05.681Z,53.42
2018-07-19T13:41:31.676Z,53.23
2018-07-19T13:43:57.705Z,55.04
2018-07-19T13:46:23.671Z,53.40
2018-07-19T13:48:49.645Z,53.84
2018-07-19T13:51:15.607Z,53.60
2018-07-19T13:53:41.594Z,53.78
2018-07-19T13:56:07.584Z,53.00
2018-07-19T13:58:33.555Z,54.05
2018-07-19T14:00:59.521Z,53.75
2018-07-19T14:03:25.533Z,53.94
2018-07-19T14:05:51.525Z,53.25
2018-07-19T14:08:17.559Z,52.96
2018-07-19T14:10:43.631Z,53.85
2018-07-19T14:13:09.634Z,53.08
2018-07-19T14:15:35.632Z,50.66
2018-07-19T14:18:01.689Z,52.66
2018-07-19T14:20:27.662Z,52.67
2018-07-19T14:22:53.631Z,52.02
2018-07-19T14:25:19.623Z,50.67
2018-07-19T14:27:45.656Z,51.47
2018-07-19T14:30:11.639Z,50.25
2018-07-19T14:32:37.637Z,51.79
2018-07-19T14:35:03.632Z,51.04
2018-07-19T14:37:29.624Z,51.90
2018-07-19T14:39:55.595Z,53.12
2018-07-19T14:42:21.604Z,52.63
2018-07-19T14:44:47.586Z,52.37
2018-07-19T14:47:13.560Z,51.63
2018-07-19T14:49:39.560Z,53.15
2018-07-19T14:52:05.743Z,52.54
2018-07-19T14:54:31.820Z,51.27
2018-07-19T14:56:57.789Z,51.48
2018-07-19T14:59:23.891Z,52.93
2018-07-19T15:01:49.891Z,53.39
2018-07-19T15:04:15.853Z,51.01
2018-07-19T15:06:41.822Z,51.27
2018-07-19T15:09:07.794Z,52.13
2018-07-19T15:11:33.816Z,51.60
2018-07-19T15:13:59.779Z,50.57
2018-07-19T15:16:26.145Z,50.13
2018-07-19T15:18:52.128Z,49.97
2018-07-19T15:21:19.136Z,50.77
2018-07-19T15:23:45.108Z,52.28
2018-07-19T15:26:11.100Z,50.58
2018-07-19T15:28:37.064Z,50.11
2018-07-19T15:31:03.079Z,50.20
2018-07-19T15:33:29.060Z,49.61
2018-07-19T15:35:55.049Z,52.08
2018-07-19T15:38:21.051Z,51.68
2018-07-19T15:40:47.044Z,50.30
2018-07-19T15:43:13.125Z,51.80
2018-07-19T15:45:39.115Z,50.50
2018-07-19T15:48:05.102Z,51.25
2018-07-19T15:50:31.082Z,50.25
2018-07-19T15:52:57.143Z,51.13
2018-07-19T15:55:23.120Z,50.58
2018-07-19T15:57:49.093Z,50.64
2018-07-19T16:00:15.132Z,50.60
2018-07-19T16:02:41.128Z,49.89
2018-07-19T16:05:07.115Z,48.87
2018-07-19T16:07:33.164Z,50.25
2018-07-19T16:09:59.286Z,49.66
2018-07-19T16:12:25.241Z,49.43
2018-07-19T16:14:51.220Z,52.84
2018-07-19T16:17:17.237Z,51.67
2018-07-19T16:19:43.205Z,52.45
2018-07-19T16:22:09.181Z,51.37
2018-07-19T16:24:35.157Z,52.12
2018-07-19T16:27:01.149Z,52.57
2018-07-19T16:29:27.209Z,52.61
2018-07-19T16:31:53.237Z,53.44
2018-07-19T16:34:19.226Z,51.21
2018-07-19T16:36:45.220Z,52.12
2018-07-19T16:39:11.214Z,52.52
2018-07-19T16:41:37.211Z,51.14
2018-07-19T16:44:03.238Z,51.58
2018-07-19T16:46:29.246Z,50.86
2018-07-19T16:48:55.298Z,50.96
2018-07-19T16:51:21.265Z,52.36
2018-07-19T16:53:47.258Z,52.06
2018-07-19T16:56:13.235Z,51.65
2018-07-19T16:58:39.228Z,51.37
2018-07-19T17:01:05.204Z,50.86
2018-07-19T17:03:31.255Z,52.41
2018-07-19T17:05:57.244Z,52.42
2018-07-19T17:08:23.209Z,52.69
2018-07-19T17:10:49.204Z,51.37
2018-07-19T17:13:15.198Z,52.52
2018-07-19T17:15:41.206Z,51.99
2018-07-19T17:18:07.189Z,51.43
2018-07-19T17:20:33.209Z,51.73
2018-07-19T17:22:59.209Z,51.47
2018-07-19T17:25:25.227Z,51.69
2018-07-19T17:27:51.206Z,52.37
2018-07-19T17:30:17.183Z,52.08
2018-07-19T17:32:43.151Z,50.86
2018-07-19T17:35:09.134Z,51.27
2018-07-19T17:37:35.117Z,51.68
2018-07-19T17:40:01.103Z,52.06
2018-07-19T17:42:27.086Z,50.81
2018-07-19T17:44:53.068Z,51.80
2018-07-19T17:47:19.032Z,51.85
2018-07-19T17:49:45.002Z,52.72
2018-07-19T17:52:11.009Z,51.52
2018-07-19T17:54:36.987Z,51.30
2018-07-19T17:57:02.995Z,52.25
2018-07-19T17:59:29.026Z,51.59
2018-07-19T18:01:54.995Z,51.44
2018-07-19T18:04:21.042Z,52.01
2018-07-19T18:06:47.091Z,51.53
2018-07-19T18:09:13.083Z,52.51
2018-07-19T18:11:39.074Z,51.70
2018-07-19T18:14:05.049Z,52.05
2018-07-19T18:16:31.070Z,52.03
2018-07-19T18:18:57.046Z,52.25
2018-07-19T18:21:23.028Z,50.03
2018-07-19T18:23:49.008Z,52.19
2018-07-19T18:26:15.023Z,51.22
2018-07-19T18:28:40.989Z,52.54
2018-07-19T18:31:07.095Z,51.18
2018-07-19T18:33:33.092Z,50.14
2018-07-19T18:35:59.083Z,51.28
2018-07-19T18:38:25.067Z,50.65
2018-07-19T18:40:51.054Z,51.96
2018-07-19T18:43:17.040Z,51.73
2018-07-19T18:45:43.040Z,51.36
2018-07-19T18:48:09.025Z,50.93
2018-07-19T18:50:35.022Z,49.62
2018-07-19T18:53:01.045Z,51.82
2018-07-19T18:55:27.040Z,50.25
2018-07-19T18:57:53.017Z,50.54
2018-07-19T19:00:18.984Z,50.41
2018-07-19T19:02:45.012Z,49.48
2018-07-19T19:05:10.960Z,50.35
2018-07-19T19:07:36.957Z,49.74
2018-07-19T19:10:02.951Z,50.49
2018-07-19T19:12:28.915Z,50.07
2018-07-19T19:14:54.889Z,49.27
2018-07-19T19:17:20.881Z,49.43
2018-07-19T19:19:46.848Z,49.90
2018-07-19T19:22:12.830Z,48.15
2018-07-19T19:24:38.859Z,49.64
2018-07-19T19:27:05.105Z,48.09
2018-07-19T19:29:31.072Z,49.88
2018-07-19T19:31:57.049Z,47.93
2018-07-19T19:34:23.123Z,48.90
2018-07-19T19:36:49.012Z,48.52
2018-07-19T19:39:15.009Z,47.45
2018-07-19T19:41:41.004Z,48.86
2018-07-19T19:44:06.976Z,46.18
2018-07-19T19:46:32.969Z,47.61
2018-07-19T19:48:58.957Z,47.04
2018-07-19T19:51:24.953Z,48.34
2018-07-19T19:53:50.997Z,47.80
2018-07-19T19:56:17.075Z,47.75
2018-07-19T19:58:43.180Z,47.75
2018-07-19T20:01:09.128Z,51.74
2018-07-19T20:03:35.100Z,50.91
2018-07-19T20:06:01.066Z,48.96
2018-07-19T20:08:27.037Z,47.72
2018-07-19T20:10:53.015Z,48.73
2018-07-19T20:13:19.023Z,47.38
2018-07-19T20:15:44.999Z,46.86
2018-07-19T20:18:10.963Z,48.85
2018-07-19T20:20:36.940Z,47.47
2018-07-19T20:23:02.938Z,47.15
2018-07-19T20:25:28.888Z,47.59
2018-07-19T20:27:54.876Z,48.25
2018-07-19T20:30:20.853Z,48.43
2018-07-19T20:32:46.834Z,47.09
2018-07-19T20:35:12.807Z,48.85
2018-07-19T20:37:38.849Z,49.47
2018-07-19T20:40:04.858Z,47.94
2018-07-19T20:42:30.829Z,47.56
2018-07-19T20:44:56.839Z,47.77
2018-07-19T20:47:22.810Z,47.97
2018-07-19T20:49:48.794Z,47.64
2018-07-19T20:52:14.774Z,47.65
2018-07-19T20:54:40.744Z,49.30
2018-07-19T20:57:06.701Z,47.36
2018-07-19T20:59:32.766Z,48.35
2018-07-19T21:01:58.748Z,48.02
2018-07-19T21:04:24.703Z,47.40
2018-07-19T21:06:50.681Z,48.69
2018-07-19T21:09:16.677Z,48.04
2018-07-19T21:11:42.647Z,48.32
2018-07-19T21:14:08.649Z,47.22
2018-07-19T21:16:34.613Z,49.03
2018-07-19T21:19:00.602Z,48.06
2018-07-19T21:21:26.589Z,47.78
2018-07-19T21:23:52.601Z,48.87
2018-07-19T21:26:18.569Z,48.23
2018-07-19T21:28:44.531Z,47.48
2018-07-19T21:31:10.507Z,48.01
2018-07-19T21:33:36.480Z,47.56
2018-07-19T21:36:02.492Z,47.93
2018-07-19T21:38:28.613Z,47.91
2018-07-19T21:40:54.590Z,47.97
2018-07-19T21:43:20.597Z,48.15
2018-07-19T21:45:46.642Z,49.34
2018-07-19T21:48:12.697Z,48.80
2018-07-19T21:50:38.669Z,49.98
2018-07-19T21:53:04.621Z,47.70
2018-07-19T21:55:30.566Z,48.48
2018-07-19T21:57:56.532Z,49.83
2018-07-19T22:00:22.518Z,47.80
2018-07-19T22:02:48.480Z,47.96
2018-07-19T22:05:14.424Z,48.35
2018-07-19T22:07:40.434Z,47.68
2018-07-19T22:10:06.427Z,47.78
2018-07-19T22:12:32.436Z,47.37
2018-07-19T22:14:58.390Z,47.50
2018-07-19T22:17:24.465Z,47.17
2018-07-19T22:19:50.449Z,49.30
2018-07-19T22:22:16.433Z,47.38
2018-07-19T22:24:42.456Z,48.21
2018-07-19T22:27:08.418Z,47.84
2018-07-19T22:29:34.380Z,48.69
2018-07-19T22:32:00.384Z,49.16
2018-07-19T22:34:26.349Z,48.57
2018-07-19T22:36:52.373Z,47.64
2018-07-19T22:39:18.360Z,47.33
2018-07-19T22:41:44.329Z,47.21
2018-07-19T22:44:10.312Z,47.24
2018-07-19T22:46:36.338Z,46.97
2018-07-19T22:49:02.520Z,46.53
2018-07-19T22:51:28.488Z,47.65
2018-07-19T22:53:54.548Z,47.05
2018-07-19T22:56:20.532Z,47.82
2018-07-19T22:58:46.492Z,48.27
2018-07-19T23:01:12.456Z,47.33
2018-07-19T23:03:38.435Z,47.65
2018-07-19T23:06:04.413Z,47.03
2018-07-19T23:08:30.423Z,47.76
2018-07-19T23:10:56.384Z,46.91
2018-07-19T23:13:22.438Z,47.51
2018-07-19T23:15:48.392Z,48.45
2018-07-19T23:18:14.415Z,49.17
2018-07-19T23:20:40.392Z,49.17
2018-07-19T23:23:06.385Z,48.43
2018-07-19T23:25:32.335Z,47.62
2018-07-19T23:27:58.369Z,48.24
2018-07-19T23:30:24.385Z,47.19
2018-07-19T23:32:50.333Z,47.76
2018-07-19T23:35:16.307Z,47.29
2018-07-19T23:37:42.494Z,47.20
2018-07-19T23:40:08.466Z,47.37
2018-07-19T23:42:34.515Z,47.71
2018-07-19T23:45:00.533Z,48.39
2018-07-19T23:47:26.502Z,48.28
2018-07-19T23:49:52.447Z,48.73
2018-07-19T23:52:18.427Z,48.54
2018-07-19T23:54:44.405Z,48.84
2018-07-19T23:57:10.409Z,48.43
2018-07-19T23:59:36.376Z,48.60
